PROFILE

 METAR AND TAF INFORMATION
ADDS - METARS form results

(0409 UTC 25 April 2019)
http://aviationweather.gov/metar/data/
 
FMCZ 250400Z AUTO 05015KT 9999 BKN021 BKN026 29/26 Q1011 TEMPO 05020G40KT 2000 TSRA SCT015CB
FMCZ 250330Z AUTO 06020KT 9999 BKN021 BKN029 OVC190 29/26 Q1010 TEMPO 05020G40KT 2000 TSRA SCT015CB
TAF FMCZ 242300Z 2500/2524 05015KT 9999 FEW018 SCT050 BKN230 PROB30 TEMPO 2500/2515 05020G40KT 2000 TSRA SCT015CB 

 AIRPORT MAP

 RUNWAY INFORMATION
Runway 16 Runway length 6330 ft Runway width 92 ft
Runway elevation 10 ft Runway displaced threshold 250 ft Runway heading 150
Runway 34 Runway length 6330 ft Runway width 92 ft
Runway elevation 23 ft Runway displaced threshold 0 ft Runway heading 330

 AIRPORT FREQUENCIES
Type AFIS Name AFIS Frequency 119.2 MHZ

 AIRPORT NEAR NAVIGATION AIDS
Type VOR-DME Name Dzaoudzi Pamandzi Frequency 113500 KHZ
Type NDB Name Dzaoudzi Pamandzi Frequency 341 KHZ